Aviation Digital Data Service (ADDS)

Output produced by METARs form (1033 UTC 19 January 2019)
found at http://www.aviationweather.gov/metar/data/
 
SCFA 191000Z 09002KT CAVOK 16/12 Q1014 NOSIG
TAF SCFA 190408Z 1906/2006 18004KT CAVOK TN17/1906Z TX21/1917Z 
     BECMG 1908/1910 36004KT BKN025 
     BECMG 1915/1917 22014KT FEW030 SCT230 
     BECMG 2000/2002 18004KT BKN020
       
SCAR 191000Z 09003KT 9999 BKN100 20/12 Q1012
TAF SCAR 190407Z 1906/2006 32004KT CAVOK TN21/1906Z TX24/1917Z 
     BECMG 1908/1910 07004KT 
     BECMG 1915/1917 22012KT 
     BECMG 2004/2006 32004KT
       
SCBA 191000Z AUTO 31011KT 240V320 CAVOK 11/08 Q1012
TAF SCBA 182244Z 1900/1924 31018KT CAVOK TN05/1908Z TX24/1919Z 
     TEMPO 1904/1912 BKN030 
     BECMG 1914/1916 30025KT
       
SCCF 191000Z 11010KT CAVOK 10/00 Q1025
TAF SCCF 190408Z 1906/2006 11012KT CAVOK TN12/1906Z TX24/1918Z 
     BECMG 1914/1915 27006KT 
     BECMG 1917/1919 27022KT 
     BECMG 2001/2003 25010KT 
     BECMG 2004/2006 11010KT
       
SCTN 191000Z AUTO 13003KT 080V170 //// R/////// // OVC002 12/12 Q1014
SCCH 191000Z AUTO VRB01KT 9999 ///////// 13/11 Q1011
SCIE 191000Z 01008KT 320V030 4000 BR OVC003 13/13 Q1012
TAF SCIE 190423Z 1906/2006 02004KT CAVOK TX25/1919Z TN11/1911Z 
     TEMPO 1908/1914 BKN010 
     BECMG 1915/1917 22008KT 
     BECMG 1919/1921 23012KT 
     BECMG 2002/2004 20004KT
       
SCAT 191000Z AUTO 34006KT 9999 // ///021 17/11 Q1016
TAF SCAT 190409Z 1906/2006 34004KT 9999 OVC017 TN16/1906Z TX22/1918Z 
     BECMG 1914/1916 30012KT SCT030 
     BECMG 1917/1919 25008KT CAVOK 
     BECMG 2002/2004 21004KT OVC011
       
SCCY 191000Z AUTO 01005KT 310V030 CAVOK 12/10 Q1013
SCDA 191000Z 14006KT CAVOK 22/14 Q1012
TAF SCDA 190407Z 1906/2006 11004KT CAVOK TN21/1906Z TX24/1917Z 
     BECMG 1911/1913 18004KT 
     BECMG 1915/1917 22016KT 
     BECMG 2002/2004 12004KT
       
SCSE 191000Z 27005KT 9999 OVC015 16/13 Q1015
TAF SCSE 190421Z 1906/2006 30004KT 9999 SCT010 BKN015 TX20/1919Z TN13/1911Z 
     TEMPO 1910/1914 3000 BR FEW008 BKN010 
     BECMG 1915/1917 29007KT FEW012 BKN018 
     BECMG 1918/1920 28012KT FEW020 
     TEMPO 1920/1923 CAVOK 
     BECMG 2001/2003 30004KT SCT012 BKN015
       
SCTE 191009Z 22003KT 180V250 9999 OVC006 11/10 Q1014 NOSIG
TAF SCTE 190405Z 1906/2006 17010KT CAVOK TN10/1910Z TX20/1920Z 
     BECMG 1908/1910 VRB04KT 9999 OVC006 
     BECMG 1913/1915 19012KT BKN015 
     BECMG 1916/1918 SCT030 
     BECMG 2000/2002 23005KT BKN020
       
SCNT 191000Z 29033G44KT 9999 VCSH BKN040 SCT100 OVC200 18/07 Q0996
SCCI 191000Z 27023KT 9999 BKN040 15/09 Q0992 NOSIG
TAF AMD SCCI 190654Z 1907/2006 31020G30KT 9000 SCT035 TX17/1918Z TN06/2006Z 
     TEMPO 1907/1913 30030G40KT SCT020 BKN030 
     BECMG 1913/1915 28020G30KT 
     BECMG 1914/1916 9999 NSW 
     BECMG 1917/1919 28018KT 
     BECMG 2001/2003 28008KT
       
SCEL 191000Z 15005KT CAVOK 16/10 Q1014 NOSIG
TAF SCEL 190422Z 1906/2006 16004KT CAVOK TX32/1919Z TN13/1911Z 
     TEMPO 1909/1913 VRB02KT 7000 NSC 
     BECMG 1916/1918 19008KT 
     BECMG 1919/1921 21012KT 
     BECMG 2001/2003 15004KT
       
SCVD 191000Z AUTO VRB01KT CAVOK 07/07 Q1013
SCVM 191000Z 34005KT 6000 OVC004 15/14 Q1015